Time;durP1;ratioP1;P1;durP2;ratioP2;P2;SDS_P1;SDS_P2;PMS_P1;PMS_P2;Temp;Humidity;BMP_temperature;BMP_pressure;BME280_temperature;BME280_humidity;BME280_pressure;Samples;Min_cycle;Max_cycle;Signal;HPM_P1;HPM_P2
2021/03/29 00:00:39;;;;;;;5.27;2.27;;;7.80;1.00;;;;;;5069092;28;20533;-66
2021/03/29 00:03:06;;;;;;;5.43;3.33;;;7.80;1.00;;;;;;5074113;28;20485;-66
2021/03/29 00:05:34;;;;;;;6.90;2.63;;;7.80;1.00;;;;;;5084323;28;20544;-66
2021/03/29 00:08:08;;;;;;;3.60;2.40;;;7.80;1.00;;;;;;5069877;28;20887;-69
2021/03/29 00:10:37;;;;;;;4.23;2.40;;;7.90;1.00;;;;;;5070060;28;20956;-68
2021/03/29 00:13:04;;;;;;;3.00;2.17;;;8.00;1.00;;;;;;5069702;28;20528;-68
2021/03/29 00:15:33;;;;;;;4.80;2.93;;;8.00;1.00;;;;;;5084886;28;20528;-66
2021/03/29 00:18:00;;;;;;;6.67;2.00;;;8.10;1.00;;;;;;5073488;28;20446;-66
2021/03/29 00:20:30;;;;;;;6.70;2.30;;;8.10;1.00;;;;;;5069575;28;20981;-68
2021/03/29 00:22:58;;;;;;;8.03;2.40;;;8.30;1.00;;;;;;5078864;28;20445;-67
2021/03/29 00:25:26;;;;;;;5.97;3.00;;;8.40;1.00;;;;;;5069526;28;20557;-67
2021/03/29 00:27:53;;;;;;;4.50;2.40;;;8.40;1.00;;;;;;5084060;28;20437;-67
2021/03/29 00:30:22;;;;;;;2.63;2.27;;;8.50;1.00;;;;;;5069772;28;20544;-66
2021/03/29 00:32:50;;;;;;;10.73;2.53;;;8.40;1.00;;;;;;5069983;28;20536;-67
2021/03/29 00:35:18;;;;;;;6.10;2.40;;;8.30;1.00;;;;;;5076724;28;20478;-67
2021/03/29 00:37:49;;;;;;;3.60;2.37;;;8.20;1.00;;;;;;5087912;28;20527;-67
2021/03/29 00:40:17;;;;;;;4.33;2.00;;;8.20;1.00;;;;;;5084254;28;20745;-67
2021/03/29 00:42:45;;;;;;;4.33;2.30;;;8.20;1.00;;;;;;5078651;28;20454;-67
2021/03/29 00:45:16;;;;;;;5.63;2.50;;;8.10;1.00;;;;;;5076947;28;20524;-66
2021/03/29 00:47:43;;;;;;;3.63;2.53;;;8.10;1.00;;;;;;5079892;28;21090;-65
2021/03/29 00:50:12;;;;;;;2.63;2.10;;;8.00;1.00;;;;;;5085411;28;20535;-66
2021/03/29 00:52:39;;;;;;;3.20;2.27;;;8.10;1.00;;;;;;5071991;28;20468;-67
2021/03/29 00:55:09;;;;;;;2.17;1.97;;;8.10;1.00;;;;;;5077070;28;20960;-67
2021/03/29 00:57:36;;;;;;;3.97;2.70;;;8.00;1.00;;;;;;5084066;28;20536;-67
2021/03/29 01:00:14;;;;;;;3.20;2.80;;;7.90;1.00;;;;;;5069747;28;20509;-67
2021/03/29 01:02:41;;;;;;;2.53;2.33;;;7.90;1.00;;;;;;5077759;28;20532;-67
2021/03/29 01:05:11;;;;;;;4.30;2.50;;;7.90;1.00;;;;;;5087586;28;20449;-67
2021/03/29 01:07:38;;;;;;;2.47;2.27;;;7.90;1.00;;;;;;5079656;28;20532;-67
2021/03/29 01:10:07;;;;;;;5.90;2.23;;;7.90;1.00;;;;;;5092725;28;20463;-67
2021/03/29 01:12:34;;;;;;;5.57;2.87;;;7.90;1.00;;;;;;5082849;28;20477;-67
2021/03/29 01:15:01;;;;;;;5.50;2.57;;;7.80;1.00;;;;;;5072964;28;20463;-67
2021/03/29 01:17:32;;;;;;;5.17;2.10;;;7.80;1.00;;;;;;5073069;28;20453;-67
2021/03/29 01:20:13;;;;;;;4.13;2.37;;;7.80;1.00;;;;;;5073057;28;20483;-67
2021/03/29 01:22:42;;;;;;;6.37;2.40;;;7.90;1.00;;;;;;5080999;28;20449;-67
2021/03/29 01:25:16;;;;;;;3.70;2.33;;;7.80;1.00;;;;;;5072943;28;20516;-67
2021/03/29 01:27:50;;;;;;;3.20;2.10;;;7.60;1.00;;;;;;5079593;28;20491;-67
2021/03/29 01:30:19;;;;;;;7.20;2.63;;;7.40;1.00;;;;;;5082114;28;20877;-67
2021/03/29 01:32:47;;;;;;;2.33;1.70;;;7.50;7.40;;;;;;5083972;28;20540;-66
2021/03/29 01:35:18;;;;;;;4.53;2.13;;;7.50;1.00;;;;;;5073126;28;20587;-66
2021/03/29 01:37:46;;;;;;;6.77;2.70;;;7.60;1.00;;;;;;5073060;28;20532;-67
2021/03/29 01:40:15;;;;;;;3.83;1.60;;;7.60;1.00;;;;;;5078648;28;20608;-66
2021/03/29 01:42:42;;;;;;;5.53;2.23;;;7.50;1.00;;;;;;5081467;28;20881;-66
2021/03/29 01:45:12;;;;;;;3.20;2.17;;;7.60;1.00;;;;;;5092034;28;20944;-67
2021/03/29 01:47:39;;;;;;;2.80;1.83;;;7.50;1.00;;;;;;5073969;28;20533;-67
2021/03/29 01:50:08;;;;;;;4.57;2.20;;;7.50;1.00;;;;;;5077181;28;20523;-67
2021/03/29 01:52:34;;;;;;;5.20;2.70;;;7.40;1.00;;;;;;5084224;28;20445;-67
2021/03/29 01:55:04;;;;;;;2.70;1.90;;;7.30;3.20;;;;;;5072561;28;20484;-67
2021/03/29 01:57:30;;;;;;;6.03;2.23;;;7.20;99.90;;;;;;5086109;28;20921;-67
2021/03/29 01:59:57;;;;;;;3.47;2.47;;;7.20;99.90;;;;;;5091665;28;20555;-67
2021/03/29 02:02:25;;;;;;;6.00;1.90;;;7.10;99.90;;;;;;5080379;28;20452;-67
2021/03/29 02:04:52;;;;;;;5.27;2.70;;;7.10;99.90;;;;;;5092348;28;20464;-67
2021/03/29 02:07:20;;;;;;;3.83;2.43;;;7.00;99.90;;;;;;5086441;28;20526;-67
2021/03/29 02:09:47;;;;;;;5.50;2.60;;;7.00;99.90;;;;;;5090949;28;20476;-66
2021/03/29 02:12:14;;;;;;;4.87;2.20;;;7.00;99.90;;;;;;5090107;28;20521;-66
2021/03/29 02:14:44;;;;;;;2.40;2.10;;;7.10;99.90;;;;;;5078266;28;20476;-66
2021/03/29 02:17:13;;;;;;;5.27;2.40;;;6.90;99.90;;;;;;5089247;28;20865;-66
2021/03/29 02:19:42;;;;;;;4.23;2.00;;;6.90;99.90;;;;;;5091832;28;20510;-67
2021/03/29 02:22:09;;;;;;;2.10;1.63;;;6.90;99.90;;;;;;5075495;28;20523;-67
2021/03/29 02:24:36;;;;;;;4.23;1.87;;;6.70;1.00;;;;;;5071980;28;20875;-67
2021/03/29 02:27:04;;;;;;;4.30;2.20;;;6.70;1.00;;;;;;5073987;28;20530;-66
2021/03/29 02:29:30;;;;;;;3.37;1.90;;;6.70;1.00;;;;;;5088820;28;20539;-66
2021/03/29 02:31:58;;;;;;;3.47;2.57;;;6.80;99.90;;;;;;5080611;28;20483;-66
2021/03/29 02:34:25;;;;;;;4.07;2.00;;;6.60;1.00;;;;;;5088029;28;20545;-66
2021/03/29 02:36:53;;;;;;;3.03;2.07;;;6.60;1.00;;;;;;5073324;28;20515;-66
2021/03/29 02:39:20;;;;;;;4.83;2.47;;;6.60;1.00;;;;;;5090385;28;20570;-66
2021/03/29 02:41:48;;;;;;;5.00;2.43;;;6.70;1.00;;;;;;5087095;28;20523;-67
2021/03/29 02:44:16;;;;;;;5.70;2.40;;;6.50;1.00;;;;;;5087266;28;20531;-66
2021/03/29 02:46:43;;;;;;;2.63;1.70;;;6.50;1.00;;;;;;5071582;28;20929;-66
2021/03/29 02:49:11;;;;;;;2.83;2.00;;;6.40;99.90;;;;;;5076458;28;21008;-66
2021/03/29 02:51:42;;;;;;;2.90;2.20;;;6.40;99.90;;;;;;5082573;28;20526;-66
2021/03/29 02:54:12;;;;;;;2.33;2.10;;;6.50;86.10;;;;;;5071917;28;20863;-66
2021/03/29 02:56:41;;;;;;;5.50;2.23;;;6.70;1.00;;;;;;5070630;28;20484;-66
2021/03/29 02:59:12;;;;;;;3.73;1.97;;;6.70;1.00;;;;;;5080743;28;20504;-66
2021/03/29 03:01:40;;;;;;;4.97;2.50;;;6.80;1.00;;;;;;5087100;28;20543;-66
2021/03/29 03:04:09;;;;;;;3.03;2.27;;;6.70;1.00;;;;;;5078007;28;20535;-66
2021/03/29 03:06:37;;;;;;;4.57;1.80;;;6.70;1.00;;;;;;5083468;28;20539;-66
2021/03/29 03:09:05;;;;;;;5.90;2.00;;;6.70;1.00;;;;;;5079916;28;20455;-66
2021/03/29 03:11:33;;;;;;;4.13;2.17;;;6.60;1.00;;;;;;5076390;28;20508;-66
2021/03/29 03:14:03;;;;;;;4.23;2.07;;;6.60;1.00;;;;;;5090215;28;20785;-66
2021/03/29 03:16:30;;;;;;;4.83;2.20;;;6.50;1.00;;;;;;5081569;28;21030;-66
2021/03/29 03:18:56;;;;;;;3.67;1.87;;;6.50;1.00;;;;;;5082657;28;20490;-66
2021/03/29 03:21:23;;;;;;;7.20;2.50;;;6.40;1.00;;;;;;5079173;28;20479;-66
2021/03/29 03:23:54;;;;;;;10.03;1.93;;;6.40;1.00;;;;;;5086693;28;20459;-66
2021/03/29 03:26:22;;;;;;;2.67;1.70;;;6.40;18.10;;;;;;5070623;28;20464;-66
2021/03/29 03:28:49;;;;;;;3.47;1.93;;;6.30;99.90;;;;;;5089420;28;20479;-66
2021/03/29 03:31:16;;;;;;;3.90;2.10;;;6.30;99.90;;;;;;5073519;28;20464;-66
2021/03/29 03:33:43;;;;;;;3.60;1.80;;;6.20;99.90;;;;;;5071428;28;20595;-66
2021/03/29 03:36:10;;;;;;;2.23;1.60;;;6.30;99.90;;;;;;5083061;28;20452;-66
2021/03/29 03:38:39;;;;;;;2.90;1.90;;;6.30;1.90;;;;;;5070293;28;20480;-66
2021/03/29 03:41:08;;;;;;;5.77;2.30;;;6.40;1.00;;;;;;5070963;28;21130;-66
2021/03/29 03:43:38;;;;;;;8.47;2.70;;;6.40;1.00;;;;;;5082517;28;20532;-67
2021/03/29 03:46:11;;;;;;;7.80;2.20;;;6.30;1.00;;;;;;5074554;28;20491;-66
2021/03/29 03:48:39;;;;;;;9.87;2.40;;;6.30;1.00;;;;;;5089901;28;20523;-66
2021/03/29 03:51:06;;;;;;;3.57;1.50;;;6.30;94.00;;;;;;5071232;28;20521;-66
2021/03/29 03:53:34;;;;;;;3.50;1.60;;;6.30;34.30;;;;;;5070332;28;20477;-66
2021/03/29 03:56:01;;;;;;;2.10;1.90;;;6.20;58.80;;;;;;5071247;28;20843;-66
2021/03/29 03:58:29;;;;;;;3.10;2.07;;;6.10;99.90;;;;;;5080597;28;20861;-66
2021/03/29 04:00:56;;;;;;;3.73;2.20;;;6.10;99.90;;;;;;5077189;28;20523;-66
2021/03/29 04:03:24;;;;;;;4.10;2.20;;;6.20;99.90;;;;;;5087379;28;20450;-66
2021/03/29 04:05:50;;;;;;;5.17;2.77;;;6.10;99.90;;;;;;5075780;28;20449;-66
2021/03/29 04:08:16;;;;;;;8.43;3.13;;;6.10;99.90;;;;;;5078563;28;20494;-66
2021/03/29 04:10:45;;;;;;;3.63;2.17;;;6.10;99.90;;;;;;5082328;28;20944;-66
2021/03/29 04:13:15;;;;;;;2.50;2.27;;;6.10;99.90;;;;;;5083972;28;20451;-66
2021/03/29 04:15:41;;;;;;;7.03;2.60;;;6.20;99.90;;;;;;5070266;28;20805;-66
2021/03/29 04:18:08;;;;;;;3.77;1.83;;;6.10;99.90;;;;;;5070160;28;20526;-66
2021/03/29 04:20:36;;;;;;;4.73;2.07;;;6.00;99.90;;;;;;5082556;28;20509;-66
2021/03/29 04:23:03;;;;;;;3.40;1.70;;;6.00;99.90;;;;;;5074425;28;20450;-66
2021/03/29 04:25:29;;;;;;;4.53;2.67;;;6.00;99.90;;;;;;5069880;28;20547;-65
2021/03/29 04:27:56;;;;;;;3.50;1.70;;;6.10;99.90;;;;;;5072734;28;20452;-67
2021/03/29 04:30:23;;;;;;;4.47;2.13;;;6.20;50.00;;;;;;5079577;28;20814;-67
2021/03/29 04:32:51;;;;;;;2.03;1.83;;;6.30;1.00;;;;;;5073988;28;20539;-66
2021/03/29 04:35:20;;;;;;;2.80;2.23;;;6.20;1.00;;;;;;5086738;28;20572;-66
2021/03/29 04:37:48;;;;;;;3.50;2.07;;;6.20;1.00;;;;;;5073396;28;20455;-66
2021/03/29 04:40:14;;;;;;;3.90;2.10;;;6.20;1.00;;;;;;5069999;28;21068;-65
2021/03/29 04:42:41;;;;;;;4.20;2.20;;;6.20;1.00;;;;;;5074003;28;20866;-66
2021/03/29 04:45:09;;;;;;;4.47;2.80;;;6.20;1.00;;;;;;5073783;28;20479;-67
2021/03/29 04:47:35;;;;;;;2.90;2.23;;;6.20;1.00;;;;;;5087818;28;20799;-67
2021/03/29 04:50:02;;;;;;;2.97;1.97;;;6.30;1.00;;;;;;5074365;28;20479;-67
2021/03/29 04:52:29;;;;;;;3.87;2.60;;;6.30;1.00;;;;;;5090873;28;20490;-67
2021/03/29 04:54:56;;;;;;;3.03;1.80;;;6.30;1.00;;;;;;5093765;28;20478;-66
2021/03/29 04:57:22;;;;;;;4.03;2.37;;;6.30;1.00;;;;;;5093560;28;20474;-66
2021/03/29 04:59:49;;;;;;;3.23;2.00;;;6.30;1.00;;;;;;5089624;28;20481;-66
2021/03/29 05:02:16;;;;;;;3.80;2.20;;;6.30;1.00;;;;;;5091935;28;20944;-66
2021/03/29 05:04:42;;;;;;;3.97;2.23;;;6.20;1.00;;;;;;5094010;28;20882;-66
2021/03/29 05:07:09;;;;;;;3.27;1.80;;;6.20;1.00;;;;;;5078515;28;20957;-64
2021/03/29 05:09:36;;;;;;;2.63;1.93;;;6.30;1.00;;;;;;5077959;28;20538;-67
2021/03/29 05:12:09;;;;;;;3.60;2.00;;;6.20;1.00;;;;;;5094363;28;20497;-67
2021/03/29 05:14:36;;;;;;;4.60;2.57;;;6.40;1.00;;;;;;5080256;28;20448;-67
2021/03/29 05:17:02;;;;;;;4.13;2.30;;;6.30;1.00;;;;;;5075510;28;20459;-67
2021/03/29 05:19:29;;;;;;;10.70;4.10;;;6.30;1.00;;;;;;5092884;28;21056;-68
2021/03/29 05:21:55;;;;;;;3.60;2.13;;;6.30;99.90;;;;;;5077835;28;20830;-67
2021/03/29 05:24:22;;;;;;;5.67;2.53;;;6.30;1.00;;;;;;5075254;28;20448;-68
2021/03/29 05:26:48;;;;;;;6.47;2.40;;;6.30;1.00;;;;;;5072708;28;20495;-66
2021/03/29 05:29:15;;;;;;;4.43;2.10;;;6.40;1.00;;;;;;5089939;28;20491;-68
2021/03/29 05:31:42;;;;;;;3.70;2.30;;;6.50;1.00;;;;;;5072537;28;20469;-67
2021/03/29 05:34:10;;;;;;;4.93;2.47;;;6.60;1.00;;;;;;5078580;28;20868;-67
2021/03/29 05:36:36;;;;;;;3.90;2.50;;;6.70;1.00;;;;;;5084761;28;20458;-67
2021/03/29 05:39:04;;;;;;;2.93;2.30;;;6.70;1.00;;;;;;5082686;28;20535;-66
2021/03/29 05:41:31;;;;;;;2.87;2.27;;;6.80;99.90;;;;;;5084550;28;20936;-66
2021/03/29 05:43:57;;;;;;;2.17;1.60;;;6.80;99.90;;;;;;5072493;28;20998;-66
2021/03/29 05:46:25;;;;;;;5.80;2.40;;;6.90;99.90;;;;;;5072419;28;20506;-66
2021/03/29 05:48:51;;;;;;;3.97;2.10;;;7.10;99.90;;;;;;5072571;28;20536;-66
2021/03/29 05:51:18;;;;;;;4.17;2.10;;;7.10;99.90;;;;;;5072024;28;20536;-67
2021/03/29 05:53:44;;;;;;;3.03;2.07;;;7.10;99.90;;;;;;5071661;28;20540;-67
2021/03/29 05:56:13;;;;;;;3.70;1.80;;;7.10;99.90;;;;;;5072920;28;20488;-67
2021/03/29 05:58:42;;;;;;;5.67;3.00;;;7.10;99.90;;;;;;5085269;28;20448;-67
2021/03/29 06:01:09;;;;;;;3.23;2.33;;;7.20;99.90;;;;;;5072293;28;20848;-67
2021/03/29 06:03:39;;;;;;;3.60;2.53;;;7.30;99.90;;;;;;5074329;28;20544;-67
2021/03/29 06:06:19;;;;;;;3.67;3.10;;;7.30;99.90;;;;;;5082443;28;20480;-67
2021/03/29 06:08:47;;;;;;;6.43;2.60;;;7.30;99.90;;;;;;5071859;28;20449;-66
2021/03/29 06:11:26;;;;;;;8.33;2.87;;;7.40;99.90;;;;;;5072502;28;20862;-67
2021/03/29 06:14:13;;;;;;;4.80;2.97;;;7.40;99.90;;;;;;5080158;28;20444;-67
2021/03/29 06:16:57;;;;;;;7.60;2.87;;;7.40;99.90;;;;;;5092279;28;20452;-68
2021/03/29 06:19:48;;;;;;;5.40;2.17;;;7.50;97.50;;;;;;5091633;28;20519;-68
2021/03/29 06:22:23;;;;;;;5.10;2.73;;;7.50;99.90;;;;;;5091973;28;20533;-68
2021/03/29 06:25:02;;;;;;;4.70;3.10;;;7.60;89.60;;;;;;5092305;28;20865;-66
2021/03/29 06:27:31;;;;;;;9.80;2.60;;;7.70;95.00;;;;;;5092069;28;20452;-66
2021/03/29 06:30:23;;;;;;;7.57;2.70;;;7.80;88.10;;;;;;5091442;28;20555;-67
2021/03/29 06:32:58;;;;;;;8.77;3.00;;;7.90;46.30;;;;;;5092073;28;20472;-66
2021/03/29 06:35:30;;;;;;;5.80;2.77;;;8.10;26.70;;;;;;5091363;28;20577;-66
2021/03/29 06:38:08;;;;;;;5.23;2.80;;;8.20;3.50;;;;;;5091507;28;20513;-67
2021/03/29 06:40:35;;;;;;;3.20;2.87;;;8.30;1.00;;;;;;5091695;28;20530;-67
2021/03/29 06:43:15;;;;;;;7.30;2.40;;;;;;;;;;5091910;28;20469;-67
2021/03/29 06:45:42;;;;;;;4.47;3.30;;;8.60;1.00;;;;;;5091960;28;20498;-67
2021/03/29 06:48:17;;;;;;;4.23;2.67;;;8.90;1.00;;;;;;5091641;28;20476;-67
2021/03/29 06:50:45;;;;;;;5.77;2.83;;;9.00;1.00;;;;;;5091744;28;20452;-67
2021/03/29 06:53:24;;;;;;;3.70;2.53;;;9.20;1.00;;;;;;5091884;28;20472;-67
2021/03/29 06:55:52;;;;;;;4.90;2.50;;;9.30;1.00;;;;;;5091680;28;20936;-67
2021/03/29 06:58:25;;;;;;;4.47;2.80;;;9.30;1.00;;;;;;5090712;28;20437;-67
2021/03/29 07:00:55;;;;;;;5.70;2.60;;;9.40;1.00;;;;;;5091851;28;20491;-67
2021/03/29 07:03:23;;;;;;;2.23;2.00;;;9.40;1.00;;;;;;5091315;28;20783;-66
2021/03/29 07:05:51;;;;;;;4.83;3.00;;;9.50;1.00;;;;;;5091710;28;20436;-66
2021/03/29 07:08:18;;;;;;;5.30;2.83;;;9.50;1.00;;;;;;5090230;28;20451;-67
2021/03/29 07:10:44;;;;;;;7.53;3.93;;;9.50;1.00;;;;;;5091415;28;20459;-67
2021/03/29 07:13:13;;;;;;;8.23;3.83;;;9.50;1.00;;;;;;5091466;28;20484;-67
2021/03/29 07:15:41;;;;;;;7.30;3.20;;;9.60;1.00;;;;;;5091497;28;20455;-66
2021/03/29 07:18:08;;;;;;;5.60;3.10;;;9.80;1.00;;;;;;5090691;28;20955;-67
2021/03/29 07:20:35;;;;;;;3.37;2.40;;;9.80;1.00;;;;;;5090805;28;20515;-67
2021/03/29 07:23:03;;;;;;;9.43;4.27;;;10.00;1.00;;;;;;5090818;28;20528;-66
2021/03/29 07:25:31;;;;;;;5.50;2.90;;;10.00;1.00;;;;;;5090800;28;20484;-66
2021/03/29 07:27:59;;;;;;;4.30;3.63;;;;;;;;;;5090443;28;20455;-67
2021/03/29 07:30:43;;;;;;;3.33;2.47;;;;;;;;;;5090919;28;20472;-66
2021/03/29 07:33:10;;;;;;;4.67;2.63;;;;;;;;;;5091102;28;20448;-66
2021/03/29 07:35:44;;;;;;;5.57;2.37;;;;;;;;;;5090269;28;20477;-67
2021/03/29 07:38:12;;;;;;;8.57;4.90;;;;;;;;;;5090744;28;20448;-66
2021/03/29 07:40:43;;;;;;;5.40;2.87;;;;;;;;;;5090383;28;20533;-66
2021/03/29 07:43:13;;;;;;;4.20;2.70;;;10.10;1.00;;;;;;5091411;28;20483;-66
2021/03/29 07:45:45;;;;;;;5.37;3.40;;;11.00;99.90;;;;;;5090581;28;20444;-67
2021/03/29 07:48:16;;;;;;;3.60;2.60;;;11.10;99.90;;;;;;5090319;28;20527;-66
2021/03/29 07:50:49;;;;;;;6.37;2.70;;;11.30;99.90;;;;;;5091034;28;20455;-66
2021/03/29 07:53:20;;;;;;;5.33;3.10;;;11.50;99.90;;;;;;5090148;28;20537;-67
2021/03/29 07:55:49;;;;;;;5.00;3.07;;;11.60;99.90;;;;;;5090715;28;20509;-66
2021/03/29 07:58:16;;;;;;;6.50;2.93;;;11.60;99.90;;;;;;5089975;28;20882;-67
2021/03/29 08:00:55;;;;;;;5.13;2.43;;;11.70;99.90;;;;;;5090697;28;20516;-66
2021/03/29 08:03:45;;;;;;;6.17;2.80;;;11.90;99.90;;;;;;5090414;28;20531;-66
2021/03/29 08:06:40;;;;;;;6.63;3.00;;;12.00;99.90;;;;;;5080145;28;20960;-66
2021/03/29 08:09:10;;;;;;;5.33;2.40;;;12.10;99.90;;;;;;5077644;28;20444;-67
2021/03/29 08:11:56;;;;;;;6.30;3.20;;;12.30;99.90;;;;;;5090085;28;20531;-67
2021/03/29 08:14:41;;;;;;;5.13;2.20;;;12.50;99.90;;;;;;5090282;28;21021;-67
2021/03/29 08:17:42;;;;;;;3.83;2.10;;;12.80;99.90;;;;;;5094419;28;20432;-67
2021/03/29 08:20:15;;;;;;;7.73;2.60;;;12.90;99.90;;;;;;5094368;28;20490;-67
2021/03/29 08:22:41;;;;;;;9.90;2.17;;;13.00;99.90;;;;;;5094418;28;20498;-67
2021/03/29 08:25:29;;;;;;;3.10;2.10;;;13.20;99.90;;;;;;5094171;28;20565;-67
2021/03/29 08:27:57;;;;;;;8.67;1.97;;;13.20;99.90;;;;;;5093873;28;20861;-67
2021/03/29 08:30:24;;;;;;;2.33;1.80;;;13.30;99.90;;;;;;5094012;28;20523;-67
2021/03/29 08:32:51;;;;;;;4.40;2.10;;;13.40;99.90;;;;;;5094614;28;20524;-67
2021/03/29 08:35:18;;;;;;;6.30;2.20;;;13.40;99.90;;;;;;5093904;28;20525;-67
2021/03/29 08:37:47;;;;;;;3.77;2.13;;;13.50;99.90;;;;;;5093704;28;20826;-67
2021/03/29 08:40:16;;;;;;;2.40;2.10;;;13.50;99.90;;;;;;5094310;28;20832;-65
2021/03/29 08:42:45;;;;;;;5.23;1.93;;;13.50;99.90;;;;;;5093938;28;21071;-66
2021/03/29 08:45:15;;;;;;;4.53;1.67;;;13.60;99.90;;;;;;5094250;28;20535;-66
2021/03/29 08:47:53;;;;;;;3.70;1.73;;;13.80;99.90;;;;;;5093684;28;20448;-66
2021/03/29 08:50:21;;;;;;;2.83;1.80;;;13.90;99.90;;;;;;5093978;28;20480;-66
2021/03/29 08:52:50;;;;;;;2.00;1.90;;;14.00;99.90;;;;;;5094021;28;20480;-67
2021/03/29 08:55:19;;;;;;;2.70;1.80;;;14.20;99.90;;;;;;5093296;28;20494;-66
2021/03/29 08:57:47;;;;;;;4.37;2.03;;;14.20;99.90;;;;;;5093512;28;20448;-67
2021/03/29 09:00:16;;;;;;;4.33;2.03;;;14.30;99.90;;;;;;5093641;28;20690;-66
2021/03/29 09:02:43;;;;;;;4.60;1.93;;;14.40;99.90;;;;;;5093713;28;21037;-67
2021/03/29 09:05:12;;;;;;;3.90;2.33;;;14.50;99.90;;;;;;5091708;28;20968;-66
2021/03/29 09:07:42;;;;;;;9.60;2.27;;;14.70;99.90;;;;;;5072371;28;21036;-67
2021/03/29 09:10:25;;;;;;;5.43;2.77;;;14.80;99.90;;;;;;5073540;28;20461;-67
2021/03/29 09:12:54;;;;;;;3.70;1.87;;;14.80;99.90;;;;;;5071249;28;20456;-67
2021/03/29 09:15:21;;;;;;;5.67;2.00;;;14.90;99.90;;;;;;5073182;28;20442;-67
2021/03/29 09:17:56;;;;;;;8.67;2.47;;;15.10;99.90;;;;;;5072847;28;20532;-66
2021/03/29 09:20:24;;;;;;;5.07;2.13;;;15.20;99.90;;;;;;5079774;28;20988;-67
2021/03/29 09:22:50;;;;;;;3.70;2.30;;;15.20;99.90;;;;;;5093422;28;20976;-66
2021/03/29 09:25:33;;;;;;;3.83;1.90;;;15.40;99.90;;;;;;5092915;28;20515;-67
2021/03/29 09:28:33;;;;;;;1.97;1.77;;;15.50;99.90;;;;;;5091446;28;21032;-67
2021/03/29 09:31:03;;;;;;;5.03;1.80;;;15.70;99.90;;;;;;5077672;28;20472;-66
2021/03/29 09:33:30;;;;;;;10.70;2.60;;;15.60;98.40;;;;;;5092497;28;20456;-66
2021/03/29 09:36:05;;;;;;;3.20;1.50;;;15.60;98.60;;;;;;5093015;28;20441;-67
2021/03/29 09:38:34;;;;;;;4.10;1.97;;;15.80;94.20;;;;;;5082766;28;20536;-67
2021/03/29 09:41:02;;;;;;;5.23;1.93;;;15.80;92.70;;;;;;5072654;28;20877;-67
2021/03/29 09:43:28;;;;;;;5.17;2.27;;;15.80;91.00;;;;;;5072622;28;20450;-67
2021/03/29 09:46:04;;;;;;;7.00;2.40;;;15.90;91.40;;;;;;5072772;28;20579;-67
2021/03/29 09:48:33;;;;;;;4.80;1.43;;;16.10;87.90;;;;;;5071934;28;20540;-67
2021/03/29 09:50:59;;;;;;;2.53;1.70;;;16.20;81.70;;;;;;5072465;28;20528;-67
2021/03/29 09:53:33;;;;;;;7.83;1.67;;;16.30;82.80;;;;;;5072146;28;20473;-67
2021/03/29 09:56:04;;;;;;;2.80;1.63;;;16.50;72.90;;;;;;5072427;28;20515;-67
2021/03/29 09:58:36;;;;;;;2.03;1.30;;;16.50;65.70;;;;;;5071822;28;20476;-67
2021/03/29 10:01:06;;;;;;;10.77;2.50;;;16.50;62.30;;;;;;5072374;28;20481;-67
2021/03/29 10:03:32;;;;;;;5.40;1.90;;;16.40;59.60;;;;;;5074176;28;20497;-67
2021/03/29 10:05:59;;;;;;;3.37;1.50;;;16.60;56.70;;;;;;5083628;28;20530;-67
2021/03/29 10:08:27;;;;;;;13.47;3.03;;;16.70;52.00;;;;;;5071435;28;20481;-67
2021/03/29 10:11:05;;;;;;;4.70;2.13;;;16.60;48.60;;;;;;5072552;28;20857;-67
2021/03/29 10:13:37;;;;;;;6.20;2.30;;;16.60;54.50;;;;;;5072224;28;20437;-67
2021/03/29 10:16:21;;;;;;;6.03;2.87;;;16.50;47.20;;;;;;5072540;28;20861;-66
2021/03/29 10:19:01;;;;;;;2.03;1.20;;;16.60;45.60;;;;;;5079084;28;20444;-66
2021/03/29 10:21:27;;;;;;;3.60;1.50;;;16.70;36.00;;;;;;5092010;28;20512;-67
2021/03/29 10:24:11;;;;;;;1.93;1.10;;;16.90;33.70;;;;;;5092205;28;20820;-67
2021/03/29 10:26:38;;;;;;;6.00;1.50;;;17.30;36.30;;;;;;5091762;28;20488;-67
2021/03/29 10:29:07;;;;;;;2.33;1.30;;;17.20;20.20;;;;;;5092021;28;20839;-67
2021/03/29 10:31:36;;;;;;;5.60;1.77;;;17.20;18.70;;;;;;5091621;28;20778;-67
2021/03/29 10:34:03;;;;;;;4.90;2.30;;;17.40;17.50;;;;;;5092044;28;20472;-67
2021/03/29 10:36:30;;;;;;;2.43;1.40;;;17.50;16.40;;;;;;5091577;28;20444;-67
2021/03/29 10:38:58;;;;;;;4.30;1.53;;;17.60;11.60;;;;;;5091107;28;20448;-66
2021/03/29 10:41:25;;;;;;;2.30;1.53;;;17.60;9.30;;;;;;5091396;28;20483;-66
2021/03/29 10:43:52;;;;;;;3.70;1.57;;;17.70;5.40;;;;;;5092327;28;20838;-65
2021/03/29 10:46:19;;;;;;;3.13;1.40;;;17.60;3.80;;;;;;5091552;28;20477;-66
2021/03/29 10:48:46;;;;;;;2.47;1.40;;;17.80;2.40;;;;;;5091343;28;20472;-66
2021/03/29 10:51:12;;;;;;;5.23;1.90;;;17.90;1.10;;;;;;5091734;28;20582;-67
2021/03/29 10:53:39;;;;;;;3.33;1.60;;;18.00;1.00;;;;;;5091157;28;20532;-67
2021/03/29 10:56:06;;;;;;;5.30;2.30;;;18.10;1.00;;;;;;5091641;28;20842;-67
2021/03/29 10:58:34;;;;;;;12.40;3.70;;;18.20;1.00;;;;;;5091060;28;20515;-67
2021/03/29 11:01:01;;;;;;;8.53;3.30;;;18.30;1.00;;;;;;5091324;28;20492;-67
2021/03/29 11:03:28;;;;;;;2.13;1.73;;;18.40;1.00;;;;;;5091331;28;20463;-67
2021/03/29 11:05:54;;;;;;;2.23;1.50;;;18.50;1.00;;;;;;5091335;28;20527;-67
2021/03/29 11:08:21;;;;;;;3.00;1.67;;;18.80;1.00;;;;;;5090503;28;20590;-67
2021/03/29 11:10:47;;;;;;;4.30;1.80;;;18.90;1.00;;;;;;5091602;28;20922;-67
2021/03/29 11:13:14;;;;;;;2.40;1.20;;;18.60;1.00;;;;;;5091337;28;20540;-67
2021/03/29 11:15:40;;;;;;;3.03;1.67;;;18.70;1.00;;;;;;5091348;28;20498;-67
2021/03/29 11:18:07;;;;;;;1.70;1.30;;;18.90;1.00;;;;;;5090746;28;20445;-65
2021/03/29 11:20:35;;;;;;;3.43;1.67;;;18.80;1.00;;;;;;5090762;28;20483;-66
2021/03/29 11:23:02;;;;;;;12.00;2.70;;;18.80;1.00;;;;;;5090926;28;20570;-66
2021/03/29 11:25:28;;;;;;;5.53;1.70;;;18.90;1.00;;;;;;5090674;28;20543;-68
2021/03/29 11:27:55;;;;;;;2.67;1.47;;;19.00;1.00;;;;;;5090513;28;20524;-65
2021/03/29 11:30:22;;;;;;;1.73;1.40;;;19.00;1.00;;;;;;5090823;28;20448;-65
2021/03/29 11:32:48;;;;;;;1.87;1.53;;;18.90;1.00;;;;;;5091132;28;20527;-65
2021/03/29 11:35:15;;;;;;;3.67;1.50;;;19.10;1.00;;;;;;5090395;28;20531;-65
2021/03/29 11:37:42;;;;;;;4.57;1.47;;;19.10;1.00;;;;;;5090313;28;20483;-65
2021/03/29 11:40:11;;;;;;;2.50;1.30;;;19.00;1.00;;;;;;5091109;28;20916;-65
2021/03/29 11:42:39;;;;;;;1.90;1.27;;;19.10;1.00;;;;;;5090380;28;20455;-68
2021/03/29 11:45:07;;;;;;;4.60;1.63;;;19.40;1.00;;;;;;5090717;28;20480;-68
2021/03/29 11:47:34;;;;;;;3.57;1.50;;;19.40;1.00;;;;;;5086338;28;20534;-66
2021/03/29 11:50:00;;;;;;;2.10;1.37;;;19.60;1.00;;;;;;5069373;28;20470;-68
2021/03/29 11:52:26;;;;;;;3.07;1.80;;;19.50;1.00;;;;;;5070107;28;20450;-68
2021/03/29 11:54:54;;;;;;;1.63;1.17;;;19.50;1.00;;;;;;5070627;28;20500;-68
2021/03/29 11:57:20;;;;;;;4.47;1.73;;;19.60;1.00;;;;;;5070021;28;20485;-67
2021/03/29 11:59:50;;;;;;;2.33;1.30;;;19.50;1.00;;;;;;5070595;28;20453;-67
2021/03/29 12:02:20;;;;;;;2.90;1.40;;;19.80;1.00;;;;;;5069963;28;20495;-66
2021/03/29 12:04:55;;;;;;;4.73;2.73;;;19.80;1.00;;;;;;5082693;28;20444;-67
2021/03/29 12:07:28;;;;;;;5.90;2.93;;;20.00;1.00;;;;;;5083384;28;20457;-67
2021/03/29 12:12:40;;;;;;;4.00;1.57;;;;;;;;;;5086986;28;20462;-67
2021/03/29 12:15:10;;;;;;;3.93;1.77;;;;;;;;;;5091734;28;20444;-66
2021/03/29 12:17:38;;;;;;;3.50;1.60;;;;;;;;;;5090219;28;20502;-66
2021/03/29 12:20:06;;;;;;;4.50;1.37;;;;;;;;;;5091121;28;20444;-66
2021/03/29 12:22:34;;;;;;;45.60;8.47;;;;;;;;;;5090647;28;20436;-68
2021/03/29 12:25:02;;;;;;;4.83;3.17;;;;;;;;;;5090877;28;20502;-68
2021/03/29 12:27:29;;;;;;;8.07;2.53;;;;;;;;;;5090375;28;20443;-67
2021/03/29 12:29:56;;;;;;;14.37;4.17;;;;;;;;;;5091274;28;20849;-68
2021/03/29 12:32:23;;;;;;;5.47;1.70;;;;;;;;;;5090506;28;20441;-68
2021/03/29 12:34:54;;;;;;;14.30;2.97;;;;;;;;;;5091123;28;20955;-67
2021/03/29 12:37:23;;;;;;;2.80;2.00;;;;;;;;;;5090423;28;20437;-68
2021/03/29 12:39:53;;;;;;;3.63;2.33;;;;;;;;;;5091361;28;20807;-67
2021/03/29 12:42:24;;;;;;;3.73;2.00;;;;;;;;;;5090888;28;20485;-67
2021/03/29 12:44:51;;;;;;;8.90;2.13;;;20.10;1.00;;;;;;5091443;28;20939;-67
2021/03/29 12:47:18;;;;;;;3.73;1.53;;;21.50;1.00;;;;;;5090193;28;21051;-67
2021/03/29 12:49:45;;;;;;;4.67;1.50;;;21.70;1.00;;;;;;5092131;28;20460;-67
2021/03/29 12:52:15;;;;;;;2.83;1.60;;;21.20;1.00;;;;;;5091196;28;20536;-67
2021/03/29 12:54:44;;;;;;;3.90;1.87;;;21.30;1.00;;;;;;5091248;28;20445;-68
2021/03/29 12:57:11;;;;;;;2.80;1.67;;;21.20;1.00;;;;;;5090248;28;20762;-67
2021/03/29 12:59:38;;;;;;;3.07;1.60;;;21.30;1.00;;;;;;5090397;28;20993;-67
2021/03/29 13:02:05;;;;;;;3.73;1.70;;;21.10;1.00;;;;;;5092568;28;20488;-67
2021/03/29 13:04:37;;;;;;;2.90;1.60;;;20.80;1.00;;;;;;5093558;28;20468;-67
2021/03/29 13:07:14;;;;;;;4.33;1.83;;;20.90;1.00;;;;;;5076172;28;20438;-67
2021/03/29 13:09:47;;;;;;;2.13;1.70;;;21.00;1.00;;;;;;5074202;28;20992;-67
2021/03/29 13:12:15;;;;;;;3.30;1.77;;;21.10;1.00;;;;;;5073935;28;20929;-67
2021/03/29 13:15:00;;;;;;;4.43;1.80;;;21.10;1.00;;;;;;5073119;28;20532;-67
2021/03/29 13:17:27;;;;;;;3.27;1.73;;;21.40;1.00;;;;;;5083024;28;20502;-67
2021/03/29 13:19:54;;;;;;;2.60;1.30;;;21.60;1.00;;;;;;5094236;28;20445;-68